Time;durP1;ratioP1;P1;durP2;ratioP2;P2;SDS_P1;SDS_P2;PMS_P1;PMS_P2;Temp;Humidity;BMP_temperature;BMP_pressure;BME280_temperature;BME280_humidity;BME280_pressure;Samples;Min_cycle;Max_cycle;Signal;HPM_P1;HPM_P2
2021/05/01 00:01:20;;;;;;;;;;;;;;;9.26;79.03;95654.91;3621533;39;19947;-54
2021/05/01 00:03:48;;;;;;;;;;;;;;;9.23;79.81;95649.09;3623921;39;20284;-55
2021/05/01 00:06:15;;;;;;;;;;;;;;;9.22;80.44;95646.72;3620254;39;20530;-55
2021/05/01 00:08:42;;;;;;;;;;;;;;;9.19;80.81;95637.47;3624116;39;19943;-55
2021/05/01 00:11:09;;;;;;;;;;;;;;;9.18;80.88;95643.00;3623242;39;19943;-54
2021/05/01 00:13:36;;;;;;;;;;;;;;;9.18;80.12;95643.00;3621761;39;20024;-55
2021/05/01 00:16:03;;;;;;;;;;;;;;;9.15;80.83;95649.59;3623160;39;19943;-55
2021/05/01 00:18:31;;;;;;;;;;;;;;;9.14;81.55;95650.63;3623689;39;19941;-54
2021/05/01 00:20:58;;;;;;;;;;;;;;;9.20;81.04;95662.75;3622336;39;19937;-54
2021/05/01 00:23:25;;;;;;;;;;;;;;;9.23;82.12;95664.09;3621215;39;19951;-54
2021/05/01 00:25:52;;;;;;;;;;;;;;;9.18;82.08;95662.22;3620811;39;19945;-55
2021/05/01 00:28:19;;;;;;;;;;;;;;;9.19;81.75;95663.81;3623317;39;19943;-55
2021/05/01 00:30:46;;;;;;;;;;;;;;;9.22;81.42;95654.63;3624598;39;19946;-55
2021/05/01 00:33:13;;;;;;;;;;;;;;;9.22;81.71;95649.38;3615812;39;19949;-54
2021/05/01 00:35:40;;;;;;;;;;;;;;;9.19;81.42;95640.13;3625207;39;19950;-55
2021/05/01 00:38:07;;;;;;;;;;;;;;;9.19;81.47;95642.75;3622832;39;19949;-55
2021/05/01 00:40:34;;;;;;;;;;;;;;;9.22;81.11;95644.88;3624022;39;20000;-54
2021/05/01 00:43:01;;;;;;;;;;;;;;;9.20;81.40;95625.91;3621669;39;20536;-55
2021/05/01 00:45:28;;;;;;;;;;;;;;;9.14;81.42;95629.56;3622156;39;19972;-54
2021/05/01 00:47:55;;;;;;;;;;;;;;;9.16;81.41;95630.13;3619084;39;19962;-55
2021/05/01 00:50:22;;;;;;;;;;;;;;;9.14;81.40;95616.41;3630244;39;20292;-55
2021/05/01 00:52:49;;;;;;;;;;;;;;;9.14;81.58;95629.56;3614389;39;20781;-55
2021/05/01 00:55:35;;;;;;;;;;;;;;;9.15;81.67;95623.25;3623428;39;19949;-60
2021/05/01 00:58:02;;;;;;;;;;;;;;;9.19;82.33;95626.94;3617929;39;20310;-56
2021/05/01 01:00:44;;;;;;;;;;;;;;;9.23;82.43;95625.41;3624409;39;20309;-56
2021/05/01 01:03:12;;;;;;;;;;;;;;;9.29;82.27;95614.94;3622451;39;19942;-55
2021/05/01 01:05:39;;;;;;;;;;;;;;;9.30;82.26;95613.84;3624635;39;19937;-56
2021/05/01 01:08:06;;;;;;;;;;;;;;;9.29;81.99;95623.59;3626978;39;19941;-55
2021/05/01 01:10:33;;;;;;;;;;;;;;;9.32;81.62;95633.63;3622451;39;19950;-56
2021/05/01 01:13:00;;;;;;;;;;;;;;;9.32;81.55;95632.81;3620099;39;20203;-56
2021/05/01 01:15:31;;;;;;;;;;;;;;;9.33;82.12;95637.03;3622394;39;19935;-55
2021/05/01 01:17:58;;;;;;;;;;;;;;;9.33;81.99;95640.47;3623137;39;19945;-55
2021/05/01 01:20:25;;;;;;;;;;;;;;;9.35;82.46;95624.44;3619595;39;19936;-55
2021/05/01 01:22:52;;;;;;;;;;;;;;;9.34;81.98;95628.09;3621295;39;19943;-54
2021/05/01 01:25:20;;;;;;;;;;;;;;;9.35;81.74;95627.84;3620411;39;19939;-54
2021/05/01 01:27:48;;;;;;;;;;;;;;;9.38;81.31;95626.56;3622316;39;20291;-54
2021/05/01 01:30:16;;;;;;;;;;;;;;;9.38;81.22;95623.91;3622232;39;20247;-55
2021/05/01 01:32:43;;;;;;;;;;;;;;;9.39;81.21;95628.16;3622341;39;20273;-55
2021/05/01 01:35:11;;;;;;;;;;;;;;;9.39;80.98;95622.88;3622580;39;20399;-55
2021/05/01 01:37:39;;;;;;;;;;;;;;;9.37;81.66;95620.47;3622098;39;19936;-54
2021/05/01 01:40:10;;;;;;;;;;;;;;;9.35;81.61;95627.84;3621167;39;19936;-54
2021/05/01 01:42:37;;;;;;;;;;;;;;;9.29;81.08;95612.28;3630697;39;19939;-55
2021/05/01 01:45:04;;;;;;;;;;;;;;;9.36;81.51;95612.84;3623000;39;19943;-55
2021/05/01 01:47:32;;;;;;;;;;;;;;;9.35;81.51;95613.91;3621282;39;19945;-54
2021/05/01 01:50:00;;;;;;;;;;;;;;;9.36;81.82;95618.91;3613340;39;20389;-55
2021/05/01 01:52:27;;;;;;;;;;;;;;;9.38;80.93;95613.38;3611903;39;19949;-55
2021/05/01 01:54:54;;;;;;;;;;;;;;;9.36;80.96;95616.25;3620309;39;19939;-55
2021/05/01 01:57:21;;;;;;;;;;;;;;;9.33;81.38;95614.16;3624435;39;19935;-54
2021/05/01 01:59:47;;;;;;;;;;;;;;;9.32;81.27;95617.84;3619450;39;19942;-54
2021/05/01 02:02:15;;;;;;;;;;;;;;;9.29;81.21;95604.41;3623123;39;20361;-54
2021/05/01 02:04:43;;;;;;;;;;;;;;;9.27;81.39;95607.28;3621502;39;19939;-54
2021/05/01 02:07:09;;;;;;;;;;;;;;;9.20;81.15;95612.75;3622374;39;19939;-56
2021/05/01 02:09:37;;;;;;;;;;;;;;;9.15;81.41;95612.75;3614936;39;19949;-54
2021/05/01 02:12:04;;;;;;;;;;;;;;;9.13;81.12;95609.56;3625101;39;19947;-54
2021/05/01 02:14:31;;;;;;;;;;;;;;;9.07;81.17;95602.66;3623351;39;19935;-55
2021/05/01 02:16:58;;;;;;;;;;;;;;;9.03;81.94;95599.75;3624348;39;19943;-54
2021/05/01 02:19:25;;;;;;;;;;;;;;;9.03;81.58;95598.97;3624050;39;19957;-54
2021/05/01 02:21:52;;;;;;;;;;;;;;;8.97;81.49;95590.25;3615369;39;19927;-55
2021/05/01 02:24:19;;;;;;;;;;;;;;;8.93;81.95;95594.44;3624030;39;20165;-54
2021/05/01 02:26:46;;;;;;;;;;;;;;;8.88;81.89;95602.28;3612498;39;19935;-54
2021/05/01 02:29:13;;;;;;;;;;;;;;;8.80;82.54;95595.63;3621929;39;20293;-56
2021/05/01 02:31:41;;;;;;;;;;;;;;;8.76;82.33;95592.72;3624074;39;19943;-55
2021/05/01 02:34:08;;;;;;;;;;;;;;;8.73;82.11;95592.44;3615206;39;19941;-54
2021/05/01 02:36:35;;;;;;;;;;;;;;;8.74;82.39;95586.13;3623214;39;19942;-55
2021/05/01 02:39:04;;;;;;;;;;;;;;;8.75;82.65;95585.88;3624930;39;19942;-56
2021/05/01 02:41:32;;;;;;;;;;;;;;;8.75;82.84;95577.22;3623651;39;19945;-55
2021/05/01 02:43:58;;;;;;;;;;;;;;;8.73;83.62;95566.16;3626397;39;19939;-55
2021/05/01 02:46:26;;;;;;;;;;;;;;;8.66;83.07;95570.84;3623928;39;19945;-55
2021/05/01 02:48:52;;;;;;;;;;;;;;;8.56;83.51;95559.19;3623896;39;19947;-55
2021/05/01 02:51:19;;;;;;;;;;;;;;;8.64;83.08;95567.66;3623786;39;19935;-55
2021/05/01 02:53:46;;;;;;;;;;;;;;;8.64;83.34;95554.50;3624203;39;19949;-55
2021/05/01 02:56:13;;;;;;;;;;;;;;;8.60;83.71;95555.00;3622986;39;20211;-55
2021/05/01 02:58:40;;;;;;;;;;;;;;;8.64;83.37;95549.25;3623903;39;19943;-55
2021/05/01 03:01:07;;;;;;;;;;;;;;;8.69;83.13;95551.91;3622565;39;19949;-54
2021/05/01 03:03:34;;;;;;;;;;;;;;;8.67;83.68;95554.81;3623923;39;19949;-54
2021/05/01 03:06:01;;;;;;;;;;;;;;;8.69;83.03;95554.53;3622257;39;19966;-55
2021/05/01 03:08:28;;;;;;;;;;;;;;;8.72;83.41;95551.41;3625033;39;19949;-56
2021/05/01 03:10:55;;;;;;;;;;;;;;;8.73;82.86;95555.63;3620751;39;19945;-55
2021/05/01 03:13:22;;;;;;;;;;;;;;;8.69;82.99;95555.34;3623442;39;19949;-55
2021/05/01 03:15:49;;;;;;;;;;;;;;;8.70;83.01;95543.78;3622181;39;19942;-56
2021/05/01 03:18:16;;;;;;;;;;;;;;;8.70;83.05;95548.22;3623799;39;19941;-55
2021/05/01 03:20:43;;;;;;;;;;;;;;;8.65;83.06;95542.97;3623379;39;19939;-55
2021/05/01 03:23:10;;;;;;;;;;;;;;;8.66;83.69;95542.69;3631770;39;19939;-55
2021/05/01 03:25:37;;;;;;;;;;;;;;;8.66;83.47;95542.69;3618185;39;19994;-55
2021/05/01 03:28:04;;;;;;;;;;;;;;;8.66;83.98;95545.31;3623791;39;20144;-56
2021/05/01 03:30:32;;;;;;;;;;;;;;;8.64;84.46;95549.25;3622021;39;19947;-56
2021/05/01 03:32:59;;;;;;;;;;;;;;;8.66;83.93;95552.44;3623506;39;19940;-55
2021/05/01 03:35:26;;;;;;;;;;;;;;;8.69;84.16;95562.41;3624188;39;19939;-55
2021/05/01 03:37:56;;;;;;;;;;;;;;;8.69;84.17;95554.53;3621384;39;19931;-55
2021/05/01 03:40:23;;;;;;;;;;;;;;;8.66;84.68;95552.44;3624906;39;19950;-56
2021/05/01 03:42:50;;;;;;;;;;;;;;;8.72;84.44;95561.94;3614754;39;19935;-55
2021/05/01 03:45:17;;;;;;;;;;;;;;;8.70;84.94;95558.75;3623882;39;19953;-55
2021/05/01 03:47:44;;;;;;;;;;;;;;;8.71;85.00;95558.53;3622305;39;19942;-55
2021/05/01 03:50:12;;;;;;;;;;;;;;;8.75;84.66;95558.81;3622975;39;19936;-54
2021/05/01 03:52:40;;;;;;;;;;;;;;;8.77;84.68;95564.59;3623437;39;19949;-55
2021/05/01 03:55:07;;;;;;;;;;;;;;;8.81;84.31;95559.63;3620793;39;19949;-55
2021/05/01 03:57:49;;;;;;;;;;;;;;;8.89;83.67;95559.16;3620507;39;19943;-54
2021/05/01 04:00:17;;;;;;;;;;;;;;;8.94;83.68;95559.19;3627609;39;19935;-55
2021/05/01 04:02:45;;;;;;;;;;;;;;;8.93;84.06;95561.00;3614068;39;20171;-55
2021/05/01 04:05:13;;;;;;;;;;;;;;;8.97;83.39;95563.16;3620782;39;20735;-57
2021/05/01 04:07:40;;;;;;;;;;;;;;;8.99;83.37;95555.78;3620809;39;20478;-55
2021/05/01 04:10:08;;;;;;;;;;;;;;;9.02;83.72;95560.56;3607821;39;19953;-55
2021/05/01 04:12:35;;;;;;;;;;;;;;;9.00;83.66;95560.78;3608265;39;19942;-55
2021/05/01 04:15:03;;;;;;;;;;;;;;;9.02;83.36;95563.97;3625000;39;19947;-56
2021/05/01 04:17:30;;;;;;;;;;;;;;;9.06;82.84;95558.97;3623291;39;19935;-54
2021/05/01 04:19:57;;;;;;;;;;;;;;;9.11;82.53;95551.13;3622491;39;20815;-55
2021/05/01 04:22:24;;;;;;;;;;;;;;;9.18;82.06;95549.06;3622624;39;19941;-54
2021/05/01 04:24:51;;;;;;;;;;;;;;;9.26;82.14;95547.78;3621627;39;20207;-56
2021/05/01 04:27:18;;;;;;;;;;;;;;;9.32;81.45;95548.59;3606149;39;19957;-55
2021/05/01 04:29:46;;;;;;;;;;;;;;;9.38;81.71;95552.84;3621425;39;20523;-55
2021/05/01 04:32:13;;;;;;;;;;;;;;;9.45;81.43;95545.50;3620414;39;19947;-55
2021/05/01 04:34:40;;;;;;;;;;;;;;;9.52;81.02;95548.69;3624974;39;20307;-55
2021/05/01 04:37:07;;;;;;;;;;;;;;;9.56;81.24;95545.53;3621214;39;19943;-55
2021/05/01 04:39:35;;;;;;;;;;;;;;;9.60;81.13;95539.47;3631294;39;19947;-55
2021/05/01 04:42:02;;;;;;;;;;;;;;;9.62;80.31;95534.75;3620915;39;20292;-55
2021/05/01 04:44:35;;;;;;;;;;;;;;;9.62;80.40;95536.63;3622403;39;19942;-55
2021/05/01 04:47:02;;;;;;;;;;;;;;;9.70;80.48;95544.00;3622547;39;19943;-54
2021/05/01 04:49:30;;;;;;;;;;;;;;;9.82;80.72;95549.84;3624375;39;19987;-56
2021/05/01 04:51:58;;;;;;;;;;;;;;;9.89;80.36;95541.69;3619963;39;20270;-54
2021/05/01 04:54:25;;;;;;;;;;;;;;;10.06;80.01;95546.72;3621366;39;20212;-54
2021/05/01 04:56:52;;;;;;;;;;;;;;;10.48;78.42;95544.16;3622273;39;19935;-54
2021/05/01 04:59:19;;;;;;;;;;;;;;;10.59;78.04;95548.38;3620587;39;19942;-54
2021/05/01 05:01:46;;;;;;;;;;;;;;;10.70;77.76;95549.94;3619664;39;19935;-54
2021/05/01 05:04:13;;;;;;;;;;;;;;;10.76;76.76;95548.91;3621967;39;19978;-56
2021/05/01 05:06:40;;;;;;;;;;;;;;;10.82;76.37;95540.97;3621941;39;19973;-55
2021/05/01 05:09:07;;;;;;;;;;;;;;;10.85;76.73;95548.34;3621495;39;19943;-55
2021/05/01 05:11:34;;;;;;;;;;;;;;;10.91;76.44;95549.91;3622318;39;19943;-55
2021/05/01 05:14:01;;;;;;;;;;;;;;;10.95;76.35;95548.34;3623705;39;20451;-55
2021/05/01 05:16:29;;;;;;;;;;;;;;;10.95;75.64;95550.97;3621076;39;19949;-55
2021/05/01 05:18:56;;;;;;;;;;;;;;;11.01;75.52;95560.47;3619690;39;19949;-54
2021/05/01 05:21:23;;;;;;;;;;;;;;;11.10;74.92;95552.78;3621564;39;19939;-55
2021/05/01 05:23:50;;;;;;;;;;;;;;;11.20;75.42;95550.13;3608062;39;19954;-55
2021/05/01 05:26:17;;;;;;;;;;;;;;;11.36;76.12;95558.00;3620205;39;19947;-55
2021/05/01 05:28:44;;;;;;;;;;;;;;;11.51;74.84;95559.78;3621184;39;19939;-55
2021/05/01 05:31:12;;;;;;;;;;;;;;;11.47;74.61;95561.41;3613032;39;19935;-55
2021/05/01 05:33:39;;;;;;;;;;;;;;;11.42;74.18;95562.22;3621752;39;19945;-55
2021/05/01 05:36:06;;;;;;;;;;;;;;;11.47;74.22;95561.41;3622969;39;19938;-55
2021/05/01 05:38:33;;;;;;;;;;;;;;;11.49;74.60;95561.94;3620546;39;19935;-55
2021/05/01 05:41:00;;;;;;;;;;;;;;;11.62;74.52;95558.72;3619514;39;19935;-56
2021/05/01 05:43:30;;;;;;;;;;;;;;;11.79;73.86;95554.94;3619155;39;19935;-54
2021/05/01 05:45:57;;;;;;;;;;;;;;;11.87;72.67;95559.66;3621860;39;20275;-55
2021/05/01 05:48:24;;;;;;;;;;;;;;;11.83;71.97;95558.63;3622167;39;19944;-57
2021/05/01 05:50:51;;;;;;;;;;;;;;;11.82;73.57;95562.31;3624700;39;20064;-55
2021/05/01 05:53:17;;;;;;;;;;;;;;;11.83;73.40;95548.03;3623991;39;19953;-55
2021/05/01 05:55:45;;;;;;;;;;;;;;;11.96;73.33;95557.22;3621637;39;20427;-55
2021/05/01 05:58:12;;;;;;;;;;;;;;;12.14;73.25;95558.47;3620735;39;19947;-54
2021/05/01 06:00:39;;;;;;;;;;;;;;;12.27;72.74;95552.56;3622235;39;19950;-57
2021/05/01 06:03:07;;;;;;;;;;;;;;;12.50;71.91;95554.78;3620467;39;19950;-55
2021/05/01 06:05:41;;;;;;;;;;;;;;;12.67;71.59;95551.75;3621463;39;19935;-55
2021/05/01 06:08:09;;;;;;;;;;;;;;;12.75;70.42;95545.84;3619375;39;19941;-55
2021/05/01 06:10:37;;;;;;;;;;;;;;;12.94;70.75;95539.84;3621232;39;19949;-55
2021/05/01 06:13:04;;;;;;;;;;;;;;;13.07;70.14;95541.84;3622495;39;19945;-55
2021/05/01 06:15:31;;;;;;;;;;;;;;;13.13;69.62;95532.75;3620114;39;19939;-55
2021/05/01 06:18:00;;;;;;;;;;;;;;;13.20;69.10;95525.28;3625248;39;20280;-56
2021/05/01 06:20:27;;;;;;;;;;;;;;;13.31;69.10;95530.47;3623119;39;19965;-56
2021/05/01 06:22:54;;;;;;;;;;;;;;;13.48;68.47;95538.00;3622287;39;19945;-55
2021/05/01 06:25:22;;;;;;;;;;;;;;;13.69;68.56;95535.88;3606563;39;20368;-56
2021/05/01 06:27:52;;;;;;;;;;;;;;;13.78;68.73;95528.09;3620991;39;19947;-55
2021/05/01 06:30:20;;;;;;;;;;;;;;;13.87;68.74;95526.38;3610376;39;20430;-55
2021/05/01 06:32:49;;;;;;;;;;;;;;;14.06;67.76;95530.88;3618702;39;19936;-55
2021/05/01 06:35:16;;;;;;;;;;;;;;;14.25;67.54;95522.91;3621743;39;19950;-55
2021/05/01 06:37:44;;;;;;;;;;;;;;;14.43;66.75;95516.00;3621047;39;19943;-55
2021/05/01 06:40:15;;;;;;;;;;;;;;;14.48;65.44;95515.94;3617760;39;19949;-56
2021/05/01 06:42:49;;;;;;;;;;;;;;;14.58;67.01;95514.97;3617344;39;19945;-58
2021/05/01 06:45:17;;;;;;;;;;;;;;;14.67;66.22;95518.56;3615739;39;20510;-55
2021/05/01 06:47:51;;;;;;;;;;;;;;;14.72;65.81;95523.78;3617105;39;20203;-55
2021/05/01 06:50:21;;;;;;;;;;;;;;;14.73;65.77;95529.88;3614310;39;19949;-57
2021/05/01 06:52:48;;;;;;;;;;;;;;;14.73;65.92;95527.22;3617856;39;19943;-55
2021/05/01 06:55:19;;;;;;;;;;;;;;;14.74;66.88;95529.59;3618811;39;20208;-55
2021/05/01 06:57:53;;;;;;;;;;;;;;;14.85;64.85;95522.25;3611811;39;20207;-55
2021/05/01 07:00:22;;;;;;;;;;;;;;;14.84;64.89;95518.00;3618467;39;20355;-56
2021/05/01 07:02:49;;;;;;;;;;;;;;;14.95;65.61;95515.97;3616608;39;19942;-54
2021/05/01 07:05:18;;;;;;;;;;;;;;;15.03;65.21;95512.63;3614860;39;20374;-55
2021/05/01 07:07:46;;;;;;;;;;;;;;;15.07;65.16;95513.63;3614673;39;19949;-56
2021/05/01 07:10:14;;;;;;;;;;;;;;;15.21;64.22;95513.63;3617589;39;19945;-56
2021/05/01 07:12:41;;;;;;;;;;;;;;;15.20;64.22;95516.59;3618209;39;20204;-56
2021/05/01 07:15:12;;;;;;;;;;;;;;;15.37;64.40;95514.09;3621537;39;19972;-56
2021/05/01 07:17:40;;;;;;;;;;;;;;;15.55;63.03;95519.63;3606344;39;20266;-55
2021/05/01 07:20:09;;;;;;;;;;;;;;;15.58;62.30;95516.34;3621527;39;19939;-54
2021/05/01 07:22:42;;;;;;;;;;;;;;;15.75;62.54;95521.06;3628724;39;19950;-54
2021/05/01 07:25:10;;;;;;;;;;;;;;;15.86;62.37;95526.97;3612295;39;19943;-55
2021/05/01 07:27:41;;;;;;;;;;;;;;;16.05;62.50;95518.06;3618551;39;20207;-55
2021/05/01 07:30:08;;;;;;;;;;;;;;;16.35;62.42;95521.91;3611514;39;19943;-55
2021/05/01 07:32:39;;;;;;;;;;;;;;;16.39;59.91;95524.75;3622773;39;20361;-55
2021/05/01 07:35:08;;;;;;;;;;;;;;;16.43;60.90;95521.19;3612829;39;19978;-58
2021/05/01 07:37:37;;;;;;;;;;;;;;;16.41;60.09;95526.00;3621747;39;20237;-55
2021/05/01 07:40:06;;;;;;;;;;;;;;;16.64;60.62;95514.56;3621207;39;19946;-55
2021/05/01 07:42:38;;;;;;;;;;;;;;;17.01;60.41;95513.38;3618419;39;19944;-55
2021/05/01 07:45:06;;;;;;;;;;;;;;;17.25;58.62;95506.13;3615440;39;19957;-55
2021/05/01 07:47:35;;;;;;;;;;;;;;;17.51;58.46;95509.66;3611279;39;19947;-55
2021/05/01 07:50:03;;;;;;;;;;;;;;;17.73;55.56;95507.97;3621154;39;20313;-56
2021/05/01 07:52:31;;;;;;;;;;;;;;;17.96;54.56;95511.28;3619305;39;19947;-56
2021/05/01 07:54:58;;;;;;;;;;;;;;;17.92;53.98;95513.00;3617867;39;19958;-55
2021/05/01 07:57:25;;;;;;;;;;;;;;;18.12;54.98;95514.31;3621013;39;19943;-55
2021/05/01 07:59:52;;;;;;;;;;;;;;;18.40;55.85;95508.63;3619085;39;19943;-56
2021/05/01 08:02:19;;;;;;;;;;;;;;;18.48;54.11;95515.06;3617554;39;20323;-55
2021/05/01 08:05:06;;;;;;;;;;;;;;;18.42;54.99;95519.78;3616195;39;19947;-55
2021/05/01 08:07:33;;;;;;;;;;;;;;;18.17;54.17;95510.69;3615521;39;19931;-55
2021/05/01 08:10:00;;;;;;;;;;;;;;;18.15;55.40;95501.44;3612743;39;20684;-55
2021/05/01 08:12:27;;;;;;;;;;;;;;;18.20;54.43;95510.06;3618660;39;20181;-55
2021/05/01 08:14:54;;;;;;;;;;;;;;;18.25;55.24;95498.44;3619144;39;19943;-55
2021/05/01 08:17:21;;;;;;;;;;;;;;;18.37;53.45;95511.16;3601821;39;19943;-56
2021/05/01 08:19:51;;;;;;;;;;;;;;;18.51;53.44;95503.75;3614187;39;19945;-55
2021/05/01 08:22:18;;;;;;;;;;;;;;;18.29;52.52;95492.16;3612719;39;20238;-55
2021/05/01 08:24:45;;;;;;;;;;;;;;;18.56;51.62;95494.78;3624736;39;19943;-55
2021/05/01 08:27:12;;;;;;;;;;;;;;;18.70;52.71;95502.63;3619932;39;19949;-55
2021/05/01 08:29:39;;;;;;;;;;;;;;;19.01;50.42;95499.75;3623405;39;20231;-55
2021/05/01 08:32:06;;;;;;;;;;;;;;;19.33;50.71;95505.56;3620468;39;19943;-55
2021/05/01 08:34:33;;;;;;;;;;;;;;;19.60;49.09;95508.91;3607608;39;20307;-55
2021/05/01 08:37:00;;;;;;;;;;;;;;;19.86;50.42;95504.47;3622699;39;19945;-55
2021/05/01 08:39:28;;;;;;;;;;;;;;;20.18;49.88;95510.28;3622910;39;19935;-55
2021/05/01 08:41:55;;;;;;;;;;;;;;;20.54;49.98;95506.94;3624426;39;20292;-55
2021/05/01 08:44:22;;;;;;;;;;;;;;;20.74;49.36;95512.56;3622323;39;20276;-55
2021/05/01 08:46:49;;;;;;;;;;;;;;;20.81;47.73;95510.19;3617305;39;20277;-56
2021/05/01 08:49:16;;;;;;;;;;;;;;;20.96;49.54;95510.66;3624114;39;19943;-56
2021/05/01 08:51:44;;;;;;;;;;;;;;;21.09;46.80;95503.41;3622137;39;19949;-56
2021/05/01 08:54:12;;;;;;;;;;;;;;;21.16;47.54;95492.94;3604402;39;20207;-56
2021/05/01 08:56:39;;;;;;;;;;;;;;;21.28;46.97;95492.13;3623716;39;19939;-56
2021/05/01 08:59:07;;;;;;;;;;;;;;;21.40;46.90;95492.13;3615026;39;19943;-56
2021/05/01 09:01:37;;;;;;;;;;;;;;;21.50;44.70;95493.59;3623590;39;19943;-56
2021/05/01 09:04:06;;;;;;;;;;;;;;;21.67;45.38;95497.97;3625100;39;19927;-56
2021/05/01 09:06:33;;;;;;;;;;;;;;;21.81;44.57;95495.72;3623787;39;19935;-56
2021/05/01 09:09:05;;;;;;;;;;;;;;;21.42;43.00;95467.63;3623788;39;19939;-56
2021/05/01 09:11:40;;;;;;;;;;;;;;;21.60;43.53;95484.34;3623238;39;19935;-56
2021/05/01 09:14:35;;;;;;;;;;;;;;;21.69;43.98;95497.63;3604008;39;19953;-55
2021/05/01 09:17:07;;;;;;;;;;;;;;;21.88;44.26;95495.13;3621369;39;19937;-55
2021/05/01 09:19:39;;;;;;;;;;;;;;;22.00;43.73;95490.84;3623761;39;19943;-56
2021/05/01 09:22:07;;;;;;;;;;;;;;;21.93;42.14;95494.13;3622807;39;19932;-56
2021/05/01 09:24:35;;;;;;;;;;;;;;;21.74;42.67;95490.09;3621258;39;19943;-56
2021/05/01 09:27:03;;;;;;;;;;;;;;;21.62;43.14;95482.06;3624603;39;19953;-55
2021/05/01 09:29:32;;;;;;;;;;;;;;;21.65;42.50;95484.09;3621600;39;20284;-55
2021/05/01 09:32:00;;;;;;;;;;;;;;;21.56;42.02;95483.41;3624604;39;19949;-54
2021/05/01 09:34:57;;;;;;;;;;;;;;;21.31;42.67;95494.94;3623431;39;19935;-55
2021/05/01 09:37:26;;;;;;;;;;;;;;;21.19;43.67;95484.19;3613873;39;20184;-54
2021/05/01 09:39:55;;;;;;;;;;;;;;;21.03;43.70;95486.75;3621930;39;19947;-55
2021/05/01 09:42:23;;;;;;;;;;;;;;;20.79;44.06;95482.91;3624481;39;20376;-55
2021/05/01 09:45:05;;;;;;;;;;;;;;;20.87;43.81;95476.66;3624434;39;20310;-55
2021/05/01 09:47:33;;;;;;;;;;;;;;;21.07;43.43;95455.47;3629737;39;20223;-55
2021/05/01 09:50:16;;;;;;;;;;;;;;;21.18;42.85;95453.91;3621531;39;19943;-55
2021/05/01 09:52:57;;;;;;;;;;;;;;;21.27;42.88;95453.00;3622140;39;20348;-55
2021/05/01 09:55:43;;;;;;;;;;;;;;;21.20;43.51;95448.22;3624042;39;19953;-55
2021/05/01 09:58:21;;;;;;;;;;;;;;;21.00;44.88;95468.66;3613275;39;19935;-55
2021/05/01 10:00:49;;;;;;;;;;;;;;;21.09;44.50;95466.66;3622170;39;19943;-55
2021/05/01 10:03:27;;;;;;;;;;;;;;;21.12;43.89;95457.94;3616230;39;19939;-55
2021/05/01 10:05:55;;;;;;;;;;;;;;;21.12;44.06;95465.19;3622479;39;19996;-56
2021/05/01 10:08:26;;;;;;;;;;;;;;;21.30;44.17;95471.91;3622115;39;19941;-55
2021/05/01 10:10:53;;;;;;;;;;;;;;;21.43;44.16;95469.22;3622881;39;19941;-55
2021/05/01 10:14:07;;;;;;;;;;;;;;;21.28;43.51;95471.47;3622835;39;19939;-55
2021/05/01 10:16:34;;;;;;;;;;;;;;;21.02;44.29;95472.59;3621316;39;20303;-55
2021/05/01 10:19:01;;;;;;;;;;;;;;;20.89;43.95;95463.72;3622242;39;20189;-55
2021/05/01 10:21:28;;;;;;;;;;;;;;;20.71;45.42;95452.38;3622725;39;19943;-55
2021/05/01 10:23:56;;;;;;;;;;;;;;;20.78;44.21;95446.50;3622268;39;19953;-54
2021/05/01 10:26:23;;;;;;;;;;;;;;;20.86;43.71;95437.56;3621658;39;19939;-55
2021/05/01 10:28:53;;;;;;;;;;;;;;;21.07;43.62;95436.72;3614022;39;19935;-56
2021/05/01 10:31:22;;;;;;;;;;;;;;;21.19;43.05;95427.88;3623880;39;19943;-56
2021/05/01 10:33:50;;;;;;;;;;;;;;;21.17;42.88;95430.91;3616948;39;19950;-54
2021/05/01 10:36:28;;;;;;;;;;;;;;;21.47;43.23;95429.84;3621537;39;19941;-54
2021/05/01 10:38:59;;;;;;;;;;;;;;;21.62;42.04;95418.47;3623706;39;19935;-55
2021/05/01 10:41:30;;;;;;;;;;;;;;;21.56;41.05;95414.41;3625400;39;20185;-55
2021/05/01 10:48:11;;;;;;;;;;;;;;;21.50;42.56;95389.72;3624068;39;20046;-55
2021/05/01 10:50:57;;;;;;;;;;;;;;;21.78;42.06;95399.72;3623416;39;19935;-56
2021/05/01 10:53:24;;;;;;;;;;;;;;;21.86;41.24;95395.34;3625751;39;19956;-55
2021/05/01 10:55:54;;;;;;;;;;;;;;;21.95;41.76;95390.59;3624413;39;20203;-54
2021/05/01 10:58:33;;;;;;;;;;;;;;;21.95;41.69;95411.31;3624528;39;20008;-56
2021/05/01 11:01:01;;;;;;;;;;;;;;;22.03;40.65;95410.38;3625712;39;20318;-55
2021/05/01 11:03:27;;;;;;;;;;;;;;;22.05;40.48;95435.00;3624709;39;20178;-56
2021/05/01 11:05:57;;;;;;;;;;;;;;;22.11;41.38;95449.72;3632426;39;19935;-56
2021/05/01 11:08:24;;;;;;;;;;;;;;;22.08;42.28;95441.59;3623787;39;19949;-57
2021/05/01 11:10:54;;;;;;;;;;;;;;;22.01;41.69;95431.44;3625456;39;19935;-56
2021/05/01 11:13:25;;;;;;;;;;;;;;;21.82;43.12;95424.00;3621758;39;20295;-54
2021/05/01 11:15:55;;;;;;;;;;;;;;;21.38;43.41;95419.25;3625886;39;19935;-55
2021/05/01 11:18:24;;;;;;;;;;;;;;;21.34;43.29;95413.78;3623981;39;19935;-55
2021/05/01 11:20:52;;;;;;;;;;;;;;;21.46;42.76;95393.41;3623451;39;19953;-55
2021/05/01 11:23:21;;;;;;;;;;;;;;;21.60;43.36;95395.78;3623806;39;19935;-55
2021/05/01 11:25:49;;;;;;;;;;;;;;;21.99;42.83;95389.94;3622230;39;19939;-55
2021/05/01 11:28:19;;;;;;;;;;;;;;;22.27;42.40;95382.63;3624248;39;20272;-55
2021/05/01 11:30:47;;;;;;;;;;;;;;;22.48;42.50;95384.31;3625056;39;19947;-55
2021/05/01 11:33:14;;;;;;;;;;;;;;;22.58;41.24;95380.34;3624798;39;19973;-55
2021/05/01 11:35:41;;;;;;;;;;;;;;;22.77;41.02;95381.56;3625192;39;19939;-55
2021/05/01 11:38:10;;;;;;;;;;;;;;;22.80;41.23;95380.88;3632908;39;19942;-54
2021/05/01 11:40:38;;;;;;;;;;;;;;;22.84;40.77;95385.19;3623371;39;19947;-57
2021/05/01 11:43:05;;;;;;;;;;;;;;;22.76;40.41;95386.16;3624820;39;19941;-55
2021/05/01 11:45:36;;;;;;;;;;;;;;;22.76;40.50;95374.63;3624752;39;19949;-56
2021/05/01 11:48:05;;;;;;;;;;;;;;;22.72;40.69;95380.69;3623903;39;19938;-55
2021/05/01 11:50:33;;;;;;;;;;;;;;;22.65;40.34;95385.91;3622064;39;19937;-55
2021/05/01 11:53:19;;;;;;;;;;;;;;;22.56;39.81;95387.97;3624141;39;19956;-55
2021/05/01 11:55:46;;;;;;;;;;;;;;;22.50;41.13;95383.97;3624254;39;19939;-55
2021/05/01 11:58:28;;;;;;;;;;;;;;;22.60;39.54;95391.50;3624917;39;20207;-55
2021/05/01 12:00:55;;;;;;;;;;;;;;;22.86;39.22;95374.09;3615750;39;19935;-55
2021/05/01 12:03:23;;;;;;;;;;;;;;;22.84;39.83;95377.13;3624658;39;19946;-55
2021/05/01 12:05:58;;;;;;;;;;;;;;;22.78;40.08;95375.81;3623121;39;19964;-55
2021/05/01 12:08:27;;;;;;;;;;;;;;;22.64;39.72;95367.44;3625270;39;19942;-55
2021/05/01 12:10:55;;;;;;;;;;;;;;;22.38;39.89;95372.16;3624359;39;19935;-55
2021/05/01 12:13:24;;;;;;;;;;;;;;;22.26;40.93;95369.53;3624356;39;20268;-55
2021/05/01 12:15:52;;;;;;;;;;;;;;;22.25;40.54;95360.72;3624544;39;19936;-55
2021/05/01 12:18:19;;;;;;;;;;;;;;;22.22;40.29;95360.59;3624788;39;19939;-55
2021/05/01 12:20:53;;;;;;;;;;;;;;;22.11;40.21;95368.38;3615118;39;19935;-55
2021/05/01 12:23:39;;;;;;;;;;;;;;;22.10;40.86;95362.22;3623392;39;19969;-55
2021/05/01 12:26:06;;;;;;;;;;;;;;;22.07;41.57;95354.88;3622375;39;19942;-55
2021/05/01 12:28:34;;;;;;;;;;;;;;;21.96;42.21;95354.56;3624622;39;19949;-55
2021/05/01 12:31:03;;;;;;;;;;;;;;;21.93;41.61;95347.19;3619636;39;19941;-57
2021/05/01 12:33:30;;;;;;;;;;;;;;;21.86;41.42;95351.59;3621660;39;19947;-56
2021/05/01 12:35:58;;;;;;;;;;;;;;;21.74;41.85;95350.53;3620621;39;19943;-55
2021/05/01 12:38:29;;;;;;;;;;;;;;;21.52;42.01;95343.78;3624584;39;19935;-55
2021/05/01 12:41:06;;;;;;;;;;;;;;;21.39;42.64;95348.38;3623196;39;19936;-56
2021/05/01 12:43:33;;;;;;;;;;;;;;;21.31;42.74;95349.28;3622400;39;19941;-55
2021/05/01 12:46:01;;;;;;;;;;;;;;;21.17;43.59;95347.75;3620857;39;19935;-55
2021/05/01 12:48:47;;;;;;;;;;;;;;;20.98;46.27;95345.66;3614179;39;19949;-55
2021/05/01 12:51:14;;;;;;;;;;;;;;;20.78;49.99;95344.66;3619645;39;19935;-54
2021/05/01 12:53:42;;;;;;;;;;;;;;;20.44;53.56;95351.97;3616500;39;19975;-55
2021/05/01 13:00:32;;;;;;;;;;;;;;;19.75;58.14;95343.53;3619897;39;20277;-54
2021/05/01 13:03:16;;;;;;;;;;;;;;;19.57;59.90;95349.03;3613628;39;19961;-55
2021/05/01 13:05:47;;;;;;;;;;;;;;;19.41;61.72;95345.38;3619857;39;19943;-56
2021/05/01 13:08:27;;;;;;;;;;;;;;;19.20;60.55;95328.22;3618694;39;19946;-55